sensor_id;sensor_type;location;lat;lon;timestamp;temperature;humidity
78297;DHT22;67555;47.660;19.622;2023-05-10T00:00:47;12.10;53.80
78297;DHT22;67555;47.660;19.622;2023-05-10T00:03:13;12.20;53.70
78297;DHT22;67555;47.660;19.622;2023-05-10T00:05:38;12.10;53.80
78297;DHT22;67555;47.660;19.622;2023-05-10T00:08:04;12.10;53.80
78297;DHT22;67555;47.660;19.622;2023-05-10T00:10:30;12.10;53.90
78297;DHT22;67555;47.660;19.622;2023-05-10T00:12:56;12.10;53.90
78297;DHT22;67555;47.660;19.622;2023-05-10T00:15:21;12.20;53.90
78297;DHT22;67555;47.660;19.622;2023-05-10T00:17:47;12.20;53.90
78297;DHT22;67555;47.660;19.622;2023-05-10T00:20:13;12.20;53.80
78297;DHT22;67555;47.660;19.622;2023-05-10T00:22:38;12.30;53.70
78297;DHT22;67555;47.660;19.622;2023-05-10T00:25:05;12.30;53.60
78297;DHT22;67555;47.660;19.622;2023-05-10T00:27:31;12.40;53.50
78297;DHT22;67555;47.660;19.622;2023-05-10T00:29:57;12.40;53.50
78297;DHT22;67555;47.660;19.622;2023-05-10T00:32:22;12.50;53.40
78297;DHT22;67555;47.660;19.622;2023-05-10T00:34:48;12.50;53.30
78297;DHT22;67555;47.660;19.622;2023-05-10T00:37:14;12.50;53.30
78297;DHT22;67555;47.660;19.622;2023-05-10T00:39:39;12.50;53.30
78297;DHT22;67555;47.660;19.622;2023-05-10T00:42:05;12.50;53.40
78297;DHT22;67555;47.660;19.622;2023-05-10T00:44:31;12.50;53.40
78297;DHT22;67555;47.660;19.622;2023-05-10T00:46:57;12.50;53.40
78297;DHT22;67555;47.660;19.622;2023-05-10T00:49:23;12.50;53.40
78297;DHT22;67555;47.660;19.622;2023-05-10T00:51:49;12.50;53.40
78297;DHT22;67555;47.660;19.622;2023-05-10T00:54:15;12.50;53.40
78297;DHT22;67555;47.660;19.622;2023-05-10T00:56:41;12.50;53.40
78297;DHT22;67555;47.660;19.622;2023-05-10T00:59:10;12.50;53.50
78297;DHT22;67555;47.660;19.622;2023-05-10T01:01:36;12.40;53.70
78297;DHT22;67555;47.660;19.622;2023-05-10T01:04:03;12.30;53.80
78297;DHT22;67555;47.660;19.622;2023-05-10T01:06:29;12.20;54.00
78297;DHT22;67555;47.660;19.622;2023-05-10T01:08:55;12.20;54.10
78297;DHT22;67555;47.660;19.622;2023-05-10T01:11:21;12.10;54.20
78297;DHT22;67555;47.660;19.622;2023-05-10T01:13:52;12.10;54.30
78297;DHT22;67555;47.660;19.622;2023-05-10T01:16:21;12.00;54.50
78297;DHT22;67555;47.660;19.622;2023-05-10T01:18:47;12.00;54.60
78297;DHT22;67555;47.660;19.622;2023-05-10T01:21:43;11.90;54.80
78297;DHT22;67555;47.660;19.622;2023-05-10T01:24:40;11.90;55.00
78297;DHT22;67555;47.660;19.622;2023-05-10T01:35:31;11.90;55.20
78297;DHT22;67555;47.660;19.622;2023-05-10T01:38:07;11.90;55.10
78297;DHT22;67555;47.660;19.622;2023-05-10T01:44:20;11.90;55.30
78297;DHT22;67555;47.660;19.622;2023-05-10T01:46:48;11.90;55.50
78297;DHT22;67555;47.660;19.622;2023-05-10T01:49:23;11.80;55.50
78297;DHT22;67555;47.660;19.622;2023-05-10T01:51:52;11.80;55.60
78297;DHT22;67555;47.660;19.622;2023-05-10T01:54:21;11.80;55.60
78297;DHT22;67555;47.660;19.622;2023-05-10T01:56:55;11.80;55.70
78297;DHT22;67555;47.660;19.622;2023-05-10T01:59:22;11.80;55.70
78297;DHT22;67555;47.660;19.622;2023-05-10T02:01:54;11.90;55.60
78297;DHT22;67555;47.660;19.622;2023-05-10T02:04:22;11.90;55.60
78297;DHT22;67555;47.660;19.622;2023-05-10T02:06:49;11.90;55.50
78297;DHT22;67555;47.660;19.622;2023-05-10T02:09:17;11.90;55.50
78297;DHT22;67555;47.660;19.622;2023-05-10T02:11:44;11.90;55.60
78297;DHT22;67555;47.660;19.622;2023-05-10T02:14:11;11.90;55.60
78297;DHT22;67555;47.660;19.622;2023-05-10T02:16:38;11.90;55.70
78297;DHT22;67555;47.660;19.622;2023-05-10T02:19:05;11.90;55.70
78297;DHT22;67555;47.660;19.622;2023-05-10T02:21:32;11.90;55.80
78297;DHT22;67555;47.660;19.622;2023-05-10T02:23:59;12.00;55.70
78297;DHT22;67555;47.660;19.622;2023-05-10T02:26:26;12.00;55.80
78297;DHT22;67555;47.660;19.622;2023-05-10T02:28:53;12.00;55.70
78297;DHT22;67555;47.660;19.622;2023-05-10T02:31:20;12.00;55.70
78297;DHT22;67555;47.660;19.622;2023-05-10T02:33:48;12.00;55.70
78297;DHT22;67555;47.660;19.622;2023-05-10T02:36:15;12.10;55.60
78297;DHT22;67555;47.660;19.622;2023-05-10T02:38:41;12.10;55.60
78297;DHT22;67555;47.660;19.622;2023-05-10T02:41:08;12.10;55.70
78297;DHT22;67555;47.660;19.622;2023-05-10T02:43:37;12.10;55.70
78297;DHT22;67555;47.660;19.622;2023-05-10T02:46:04;12.10;55.70
78297;DHT22;67555;47.660;19.622;2023-05-10T02:48:30;12.10;55.70
78297;DHT22;67555;47.660;19.622;2023-05-10T02:51:02;12.10;55.90
78297;DHT22;67555;47.660;19.622;2023-05-10T02:53:32;12.20;56.10
78297;DHT22;67555;47.660;19.622;2023-05-10T02:56:01;12.10;56.30
78297;DHT22;67555;47.660;19.622;2023-05-10T02:58:29;12.20;56.50
78297;DHT22;67555;47.660;19.622;2023-05-10T03:00:55;12.20;56.80
78297;DHT22;67555;47.660;19.622;2023-05-10T03:03:20;12.20;57.10
78297;DHT22;67555;47.660;19.622;2023-05-10T03:05:46;12.20;57.50
78297;DHT22;67555;47.660;19.622;2023-05-10T03:08:12;12.10;57.90
78297;DHT22;67555;47.660;19.622;2023-05-10T03:10:55;12.10;58.20
78297;DHT22;67555;47.660;19.622;2023-05-10T03:13:38;12.00;58.80
78297;DHT22;67555;47.660;19.622;2023-05-10T03:16:25;12.00;59.30
78297;DHT22;67555;47.660;19.622;2023-05-10T03:19:22;12.00;59.50
78297;DHT22;67555;47.660;19.622;2023-05-10T03:21:51;11.90;60.00
78297;DHT22;67555;47.660;19.622;2023-05-10T03:24:22;11.90;60.20
78297;DHT22;67555;47.660;19.622;2023-05-10T03:26:49;11.90;60.50
78297;DHT22;67555;47.660;19.622;2023-05-10T03:29:17;11.90;60.70
78297;DHT22;67555;47.660;19.622;2023-05-10T03:31:43;11.90;61.00
78297;DHT22;67555;47.660;19.622;2023-05-10T03:34:09;11.90;61.30
78297;DHT22;67555;47.660;19.622;2023-05-10T03:36:35;11.90;61.50
78297;DHT22;67555;47.660;19.622;2023-05-10T03:39:01;11.90;61.60
78297;DHT22;67555;47.660;19.622;2023-05-10T03:41:27;11.90;61.80
78297;DHT22;67555;47.660;19.622;2023-05-10T03:43:53;11.90;61.90
78297;DHT22;67555;47.660;19.622;2023-05-10T03:46:19;11.90;62.00
78297;DHT22;67555;47.660;19.622;2023-05-10T03:48:45;11.90;62.10
78297;DHT22;67555;47.660;19.622;2023-05-10T03:51:11;12.00;62.00
78297;DHT22;67555;47.660;19.622;2023-05-10T03:53:37;12.00;62.10
78297;DHT22;67555;47.660;19.622;2023-05-10T03:56:03;12.00;62.20
78297;DHT22;67555;47.660;19.622;2023-05-10T03:58:29;12.10;62.20
78297;DHT22;67555;47.660;19.622;2023-05-10T04:00:55;12.10;62.40
78297;DHT22;67555;47.660;19.622;2023-05-10T04:03:20;12.10;62.50
78297;DHT22;67555;47.660;19.622;2023-05-10T04:05:46;12.10;62.60
78297;DHT22;67555;47.660;19.622;2023-05-10T04:08:12;12.20;62.70
78297;DHT22;67555;47.660;19.622;2023-05-10T04:10:37;12.20;62.90
78297;DHT22;67555;47.660;19.622;2023-05-10T04:13:03;12.20;62.90
78297;DHT22;67555;47.660;19.622;2023-05-10T04:15:29;12.30;63.00
78297;DHT22;67555;47.660;19.622;2023-05-10T04:17:54;12.30;62.90
78297;DHT22;67555;47.660;19.622;2023-05-10T04:20:20;12.50;62.80
78297;DHT22;67555;47.660;19.622;2023-05-10T04:22:46;12.50;62.80
78297;DHT22;67555;47.660;19.622;2023-05-10T04:25:12;12.50;62.70
78297;DHT22;67555;47.660;19.622;2023-05-10T04:27:37;12.50;62.70
78297;DHT22;67555;47.660;19.622;2023-05-10T04:30:04;12.50;62.80
78297;DHT22;67555;47.660;19.622;2023-05-10T04:32:29;12.50;63.00
78297;DHT22;67555;47.660;19.622;2023-05-10T04:34:55;12.60;63.00
78297;DHT22;67555;47.660;19.622;2023-05-10T04:37:21;12.70;62.90
78297;DHT22;67555;47.660;19.622;2023-05-10T04:39:48;12.80;62.70
78297;DHT22;67555;47.660;19.622;2023-05-10T04:42:14;12.90;62.50
78297;DHT22;67555;47.660;19.622;2023-05-10T04:44:40;13.10;62.40
78297;DHT22;67555;47.660;19.622;2023-05-10T04:47:06;13.10;62.30
78297;DHT22;67555;47.660;19.622;2023-05-10T04:49:32;13.10;62.30
78297;DHT22;67555;47.660;19.622;2023-05-10T04:51:58;13.20;62.10
78297;DHT22;67555;47.660;19.622;2023-05-10T04:54:25;13.30;61.90
78297;DHT22;67555;47.660;19.622;2023-05-10T04:56:50;13.30;61.60
78297;DHT22;67555;47.660;19.622;2023-05-10T04:59:16;13.40;61.40
78297;DHT22;67555;47.660;19.622;2023-05-10T05:01:42;13.50;61.30
78297;DHT22;67555;47.660;19.622;2023-05-10T05:04:08;13.50;61.20
78297;DHT22;67555;47.660;19.622;2023-05-10T05:06:34;13.60;60.90
78297;DHT22;67555;47.660;19.622;2023-05-10T05:09:00;13.70;60.70
78297;DHT22;67555;47.660;19.622;2023-05-10T05:11:25;13.70;60.50
78297;DHT22;67555;47.660;19.622;2023-05-10T05:13:51;13.80;60.20
78297;DHT22;67555;47.660;19.622;2023-05-10T05:16:17;13.80;60.00
78297;DHT22;67555;47.660;19.622;2023-05-10T05:18:43;13.90;59.80
78297;DHT22;67555;47.660;19.622;2023-05-10T05:21:18;13.90;59.70
78297;DHT22;67555;47.660;19.622;2023-05-10T05:23:45;13.80;59.60
78297;DHT22;67555;47.660;19.622;2023-05-10T05:26:11;13.90;59.40
78297;DHT22;67555;47.660;19.622;2023-05-10T05:28:37;13.90;59.20
78297;DHT22;67555;47.660;19.622;2023-05-10T05:31:06;14.00;59.00
78297;DHT22;67555;47.660;19.622;2023-05-10T05:33:35;14.10;58.80
78297;DHT22;67555;47.660;19.622;2023-05-10T05:36:02;14.30;58.50
78297;DHT22;67555;47.660;19.622;2023-05-10T05:38:28;14.40;58.40
78297;DHT22;67555;47.660;19.622;2023-05-10T05:40:54;14.50;58.20
78297;DHT22;67555;47.660;19.622;2023-05-10T05:43:19;14.60;57.90
78297;DHT22;67555;47.660;19.622;2023-05-10T05:45:45;14.70;57.50
78297;DHT22;67555;47.660;19.622;2023-05-10T05:48:11;14.90;57.20
78297;DHT22;67555;47.660;19.622;2023-05-10T05:50:37;14.90;56.90
78297;DHT22;67555;47.660;19.622;2023-05-10T05:53:02;15.00;56.60
78297;DHT22;67555;47.660;19.622;2023-05-10T05:55:28;15.00;56.50
78297;DHT22;67555;47.660;19.622;2023-05-10T05:57:55;15.20;56.20
78297;DHT22;67555;47.660;19.622;2023-05-10T06:00:20;15.20;56.00
78297;DHT22;67555;47.660;19.622;2023-05-10T06:02:47;15.20;55.80
78297;DHT22;67555;47.660;19.622;2023-05-10T06:05:13;15.20;55.50
78297;DHT22;67555;47.660;19.622;2023-05-10T06:07:39;15.20;55.50
78297;DHT22;67555;47.660;19.622;2023-05-10T06:10:08;15.20;55.40
78297;DHT22;67555;47.660;19.622;2023-05-10T06:12:34;15.00;55.50
78297;DHT22;67555;47.660;19.622;2023-05-10T06:15:00;15.00;55.70
78297;DHT22;67555;47.660;19.622;2023-05-10T06:17:27;15.00;55.80
78297;DHT22;67555;47.660;19.622;2023-05-10T06:19:54;15.00;56.00
78297;DHT22;67555;47.660;19.622;2023-05-10T06:22:20;15.10;55.90
78297;DHT22;67555;47.660;19.622;2023-05-10T06:24:48;15.20;55.70
78297;DHT22;67555;47.660;19.622;2023-05-10T06:27:14;15.20;55.80
78297;DHT22;67555;47.660;19.622;2023-05-10T06:29:39;15.30;55.70
78297;DHT22;67555;47.660;19.622;2023-05-10T06:32:05;15.40;55.60
78297;DHT22;67555;47.660;19.622;2023-05-10T06:34:31;15.40;55.50
78297;DHT22;67555;47.660;19.622;2023-05-10T06:36:57;15.50;55.40
78297;DHT22;67555;47.660;19.622;2023-05-10T06:39:22;15.50;55.30
78297;DHT22;67555;47.660;19.622;2023-05-10T06:41:48;15.50;55.50
78297;DHT22;67555;47.660;19.622;2023-05-10T06:44:14;15.50;55.60
78297;DHT22;67555;47.660;19.622;2023-05-10T06:46:40;15.60;55.70
78297;DHT22;67555;47.660;19.622;2023-05-10T06:49:06;15.60;55.70
78297;DHT22;67555;47.660;19.622;2023-05-10T06:51:32;15.60;55.70
78297;DHT22;67555;47.660;19.622;2023-05-10T06:53:59;15.60;55.60
78297;DHT22;67555;47.660;19.622;2023-05-10T06:56:25;15.70;55.50
78297;DHT22;67555;47.660;19.622;2023-05-10T06:58:51;15.80;55.40
78297;DHT22;67555;47.660;19.622;2023-05-10T07:01:17;15.80;55.30
78297;DHT22;67555;47.660;19.622;2023-05-10T07:03:42;15.80;55.40
78297;DHT22;67555;47.660;19.622;2023-05-10T07:06:08;15.80;55.50
78297;DHT22;67555;47.660;19.622;2023-05-10T07:08:34;16.00;55.30
78297;DHT22;67555;47.660;19.622;2023-05-10T07:11:06;16.00;55.30
78297;DHT22;67555;47.660;19.622;2023-05-10T07:13:38;16.00;55.40
78297;DHT22;67555;47.660;19.622;2023-05-10T07:16:07;16.10;55.10
78297;DHT22;67555;47.660;19.622;2023-05-10T07:18:33;16.20;54.80
78297;DHT22;67555;47.660;19.622;2023-05-10T07:20:59;16.30;54.60
78297;DHT22;67555;47.660;19.622;2023-05-10T07:23:25;16.50;54.30
78297;DHT22;67555;47.660;19.622;2023-05-10T07:25:51;16.70;53.90
78297;DHT22;67555;47.660;19.622;2023-05-10T07:28:17;17.00;53.50
78297;DHT22;67555;47.660;19.622;2023-05-10T07:30:44;17.20;53.00
78297;DHT22;67555;47.660;19.622;2023-05-10T07:33:12;17.40;52.60
78297;DHT22;67555;47.660;19.622;2023-05-10T07:35:38;17.50;52.60
78297;DHT22;67555;47.660;19.622;2023-05-10T07:38:04;17.70;52.20
78297;DHT22;67555;47.660;19.622;2023-05-10T07:40:30;17.70;52.00
78297;DHT22;67555;47.660;19.622;2023-05-10T07:42:56;17.80;51.80
78297;DHT22;67555;47.660;19.622;2023-05-10T07:45:22;17.80;51.60
78297;DHT22;67555;47.660;19.622;2023-05-10T07:47:48;18.10;51.10
78297;DHT22;67555;47.660;19.622;2023-05-10T07:50:14;18.50;50.50
78297;DHT22;67555;47.660;19.622;2023-05-10T07:52:39;18.90;49.80
78297;DHT22;67555;47.660;19.622;2023-05-10T07:55:06;19.10;49.40
78297;DHT22;67555;47.660;19.622;2023-05-10T07:57:34;19.30;48.90
78297;DHT22;67555;47.660;19.622;2023-05-10T07:59:59;19.40;48.60
78297;DHT22;67555;47.660;19.622;2023-05-10T08:02:25;19.60;48.30
78297;DHT22;67555;47.660;19.622;2023-05-10T08:04:52;19.60;48.00
78297;DHT22;67555;47.660;19.622;2023-05-10T08:07:18;19.60;47.70
78297;DHT22;67555;47.660;19.622;2023-05-10T08:09:44;19.70;47.70
78297;DHT22;67555;47.660;19.622;2023-05-10T08:12:09;20.00;47.70
78297;DHT22;67555;47.660;19.622;2023-05-10T08:14:35;20.10;47.20
78297;DHT22;67555;47.660;19.622;2023-05-10T08:17:04;20.10;46.70
78297;DHT22;67555;47.660;19.622;2023-05-10T08:19:29;20.30;46.50
78297;DHT22;67555;47.660;19.622;2023-05-10T08:21:55;20.30;46.40
78297;DHT22;67555;47.660;19.622;2023-05-10T08:24:22;20.40;46.30
78297;DHT22;67555;47.660;19.622;2023-05-10T08:26:48;20.40;46.10
78297;DHT22;67555;47.660;19.622;2023-05-10T08:29:14;20.50;46.10
78297;DHT22;67555;47.660;19.622;2023-05-10T08:31:40;20.60;45.90
78297;DHT22;67555;47.660;19.622;2023-05-10T08:34:06;20.50;45.70
78297;DHT22;67555;47.660;19.622;2023-05-10T08:36:32;20.50;45.80
78297;DHT22;67555;47.660;19.622;2023-05-10T08:38:57;20.50;45.80
78297;DHT22;67555;47.660;19.622;2023-05-10T08:41:24;20.50;45.80
78297;DHT22;67555;47.660;19.622;2023-05-10T08:43:51;20.50;45.80
78297;DHT22;67555;47.660;19.622;2023-05-10T08:46:19;20.50;45.70
78297;DHT22;67555;47.660;19.622;2023-05-10T08:48:46;20.50;45.70
78297;DHT22;67555;47.660;19.622;2023-05-10T08:51:20;20.40;45.70
78297;DHT22;67555;47.660;19.622;2023-05-10T08:53:47;20.50;45.70
78297;DHT22;67555;47.660;19.622;2023-05-10T08:56:13;20.60;45.50
78297;DHT22;67555;47.660;19.622;2023-05-10T08:58:41;20.50;45.50
78297;DHT22;67555;47.660;19.622;2023-05-10T09:01:07;20.50;45.70
78297;DHT22;67555;47.660;19.622;2023-05-10T09:03:34;20.50;45.70
78297;DHT22;67555;47.660;19.622;2023-05-10T09:06:00;20.50;45.70
78297;DHT22;67555;47.660;19.622;2023-05-10T09:08:26;20.60;45.50
78297;DHT22;67555;47.660;19.622;2023-05-10T09:10:54;20.70;45.10
78297;DHT22;67555;47.660;19.622;2023-05-10T09:13:21;20.80;45.00
78297;DHT22;67555;47.660;19.622;2023-05-10T09:15:47;21.00;45.00
78297;DHT22;67555;47.660;19.622;2023-05-10T09:18:14;21.20;44.70
78297;DHT22;67555;47.660;19.622;2023-05-10T09:20:40;21.20;44.30
78297;DHT22;67555;47.660;19.622;2023-05-10T09:23:06;21.30;44.40
78297;DHT22;67555;47.660;19.622;2023-05-10T09:25:32;21.50;44.30
78297;DHT22;67555;47.660;19.622;2023-05-10T09:28:02;21.50;43.90
78297;DHT22;67555;47.660;19.622;2023-05-10T09:30:31;21.60;43.90
78297;DHT22;67555;47.660;19.622;2023-05-10T09:32:58;21.90;43.70
78297;DHT22;67555;47.660;19.622;2023-05-10T09:35:26;22.10;43.50
78297;DHT22;67555;47.660;19.622;2023-05-10T09:37:54;22.00;43.00
78297;DHT22;67555;47.660;19.622;2023-05-10T09:40:22;22.00;42.90
78297;DHT22;67555;47.660;19.622;2023-05-10T09:42:59;22.00;42.80
78297;DHT22;67555;47.660;19.622;2023-05-10T09:45:27;22.10;42.70
78297;DHT22;67555;47.660;19.622;2023-05-10T09:47:53;22.20;42.70
78297;DHT22;67555;47.660;19.622;2023-05-10T09:50:20;22.50;42.60
78297;DHT22;67555;47.660;19.622;2023-05-10T09:52:50;22.50;42.40
78297;DHT22;67555;47.660;19.622;2023-05-10T09:55:23;22.30;42.20
78297;DHT22;67555;47.660;19.622;2023-05-10T09:57:59;22.10;42.40
78297;DHT22;67555;47.660;19.622;2023-05-10T10:00:25;22.00;42.70
78297;DHT22;67555;47.660;19.622;2023-05-10T10:02:58;22.00;42.70
78297;DHT22;67555;47.660;19.622;2023-05-10T10:05:29;22.00;42.50
78297;DHT22;67555;47.660;19.622;2023-05-10T10:07:56;21.90;42.40
78297;DHT22;67555;47.660;19.622;2023-05-10T10:10:26;21.70;42.30
78297;DHT22;67555;47.660;19.622;2023-05-10T10:12:52;21.50;42.50
78297;DHT22;67555;47.660;19.622;2023-05-10T10:15:22;21.50;42.60
78297;DHT22;67555;47.660;19.622;2023-05-10T10:17:50;21.50;42.50
78297;DHT22;67555;47.660;19.622;2023-05-10T10:20:16;21.50;42.50
78297;DHT22;67555;47.660;19.622;2023-05-10T10:22:42;21.50;42.50
78297;DHT22;67555;47.660;19.622;2023-05-10T10:25:18;21.70;42.40
78297;DHT22;67555;47.660;19.622;2023-05-10T10:35:54;22.10;40.80
78297;DHT22;67555;47.660;19.622;2023-05-10T10:38:21;22.00;41.20
78297;DHT22;67555;47.660;19.622;2023-05-10T10:40:47;22.00;41.80
78297;DHT22;67555;47.660;19.622;2023-05-10T10:43:27;22.10;41.80
78297;DHT22;67555;47.660;19.622;2023-05-10T10:46:12;22.10;41.40
78297;DHT22;67555;47.660;19.622;2023-05-10T10:48:39;22.00;40.70
78297;DHT22;67555;47.660;19.622;2023-05-10T10:51:05;21.80;40.80
78297;DHT22;67555;47.660;19.622;2023-05-10T10:53:32;21.70;41.10
78297;DHT22;67555;47.660;19.622;2023-05-10T10:56:11;21.70;41.10
78297;DHT22;67555;47.660;19.622;2023-05-10T10:58:39;21.70;41.10
78297;DHT22;67555;47.660;19.622;2023-05-10T11:03:41;22.00;41.10
78297;DHT22;67555;47.660;19.622;2023-05-10T11:06:07;22.10;41.00
78297;DHT22;67555;47.660;19.622;2023-05-10T11:08:41;22.20;40.80
78297;DHT22;67555;47.660;19.622;2023-05-10T11:11:08;22.30;40.70
78297;DHT22;67555;47.660;19.622;2023-05-10T11:13:43;22.30;40.60
78297;DHT22;67555;47.660;19.622;2023-05-10T11:16:23;22.30;40.50
78297;DHT22;67555;47.660;19.622;2023-05-10T11:21:24;22.50;40.20
78297;DHT22;67555;47.660;19.622;2023-05-10T11:23:55;22.70;39.70
78297;DHT22;67555;47.660;19.622;2023-05-10T11:26:24;22.70;39.80
78297;DHT22;67555;47.660;19.622;2023-05-10T11:28:53;22.80;39.90
78297;DHT22;67555;47.660;19.622;2023-05-10T11:31:23;22.90;39.70
78297;DHT22;67555;47.660;19.622;2023-05-10T11:33:51;22.90;39.60
78297;DHT22;67555;47.660;19.622;2023-05-10T11:36:18;22.90;39.60
78297;DHT22;67555;47.660;19.622;2023-05-10T11:38:44;22.90;39.50
78297;DHT22;67555;47.660;19.622;2023-05-10T11:41:11;22.90;39.50
78297;DHT22;67555;47.660;19.622;2023-05-10T11:43:41;22.90;39.40
78297;DHT22;67555;47.660;19.622;2023-05-10T11:46:10;22.80;39.40
78297;DHT22;67555;47.660;19.622;2023-05-10T11:48:39;22.50;39.60
78297;DHT22;67555;47.660;19.622;2023-05-10T11:51:06;22.30;39.70
78297;DHT22;67555;47.660;19.622;2023-05-10T11:53:33;22.20;39.70
78297;DHT22;67555;47.660;19.622;2023-05-10T11:56:09;22.30;39.70
78297;DHT22;67555;47.660;19.622;2023-05-10T11:58:36;22.50;39.60
78297;DHT22;67555;47.660;19.622;2023-05-10T12:01:04;22.70;39.50
78297;DHT22;67555;47.660;19.622;2023-05-10T12:03:30;22.80;39.40
78297;DHT22;67555;47.660;19.622;2023-05-10T12:05:57;23.10;39.10
78297;DHT22;67555;47.660;19.622;2023-05-10T12:08:27;23.20;38.80
78297;DHT22;67555;47.660;19.622;2023-05-10T12:11:03;23.40;38.60
78297;DHT22;67555;47.660;19.622;2023-05-10T12:13:29;23.60;38.30
78297;DHT22;67555;47.660;19.622;2023-05-10T12:15:58;23.60;38.20
78297;DHT22;67555;47.660;19.622;2023-05-10T12:18:24;23.70;38.10
78297;DHT22;67555;47.660;19.622;2023-05-10T12:20:53;23.80;37.90
78297;DHT22;67555;47.660;19.622;2023-05-10T12:23:20;23.90;37.80
78297;DHT22;67555;47.660;19.622;2023-05-10T12:25:46;24.20;37.60
78297;DHT22;67555;47.660;19.622;2023-05-10T12:28:12;24.30;37.10
78297;DHT22;67555;47.660;19.622;2023-05-10T12:30:38;24.30;36.80
78297;DHT22;67555;47.660;19.622;2023-05-10T12:33:09;24.40;36.90
78297;DHT22;67555;47.660;19.622;2023-05-10T12:35:47;24.40;37.00
78297;DHT22;67555;47.660;19.622;2023-05-10T12:40:57;24.30;36.60
78297;DHT22;67555;47.660;19.622;2023-05-10T12:43:23;24.10;36.90
78297;DHT22;67555;47.660;19.622;2023-05-10T12:45:49;23.90;37.00
78297;DHT22;67555;47.660;19.622;2023-05-10T12:48:15;23.80;37.20
78297;DHT22;67555;47.660;19.622;2023-05-10T12:50:41;23.70;37.20
78297;DHT22;67555;47.660;19.622;2023-05-10T12:53:07;23.80;37.10
78297;DHT22;67555;47.660;19.622;2023-05-10T12:55:32;23.80;37.10
78297;DHT22;67555;47.660;19.622;2023-05-10T12:57:58;23.90;36.70
78297;DHT22;67555;47.660;19.622;2023-05-10T13:00:24;23.90;36.60
78297;DHT22;67555;47.660;19.622;2023-05-10T13:02:50;23.80;36.80
78297;DHT22;67555;47.660;19.622;2023-05-10T13:05:15;23.60;36.90
78297;DHT22;67555;47.660;19.622;2023-05-10T13:07:41;23.60;36.90
78297;DHT22;67555;47.660;19.622;2023-05-10T13:10:10;23.80;36.80
78297;DHT22;67555;47.660;19.622;2023-05-10T13:12:36;23.90;36.60
78297;DHT22;67555;47.660;19.622;2023-05-10T13:48:18;22.90;36.80
78297;DHT22;67555;47.660;19.622;2023-05-10T13:50:44;22.20;37.60
78297;DHT22;67555;47.660;19.622;2023-05-10T14:21:08;21.50;39.30
78297;DHT22;67555;47.660;19.622;2023-05-10T14:23:33;21.70;41.60
78297;DHT22;67555;47.660;19.622;2023-05-10T14:25:59;21.90;41.20
78297;DHT22;67555;47.660;19.622;2023-05-10T14:28:25;22.10;40.90
78297;DHT22;67555;47.660;19.622;2023-05-10T14:30:51;22.10;40.60
78297;DHT22;67555;47.660;19.622;2023-05-10T14:33:18;22.20;40.50
78297;DHT22;67555;47.660;19.622;2023-05-10T14:35:44;22.20;40.40
78297;DHT22;67555;47.660;19.622;2023-05-10T14:38:10;22.30;40.10
78297;DHT22;67555;47.660;19.622;2023-05-10T14:40:36;22.50;39.80
78297;DHT22;67555;47.660;19.622;2023-05-10T14:43:02;22.50;39.70
78297;DHT22;67555;47.660;19.622;2023-05-10T14:45:27;22.60;39.80
78297;DHT22;67555;47.660;19.622;2023-05-10T14:47:53;22.70;39.70
78297;DHT22;67555;47.660;19.622;2023-05-10T14:50:19;22.70;39.60
78297;DHT22;67555;47.660;19.622;2023-05-10T14:52:45;22.70;39.60
78297;DHT22;67555;47.660;19.622;2023-05-10T14:55:11;22.80;39.40
78297;DHT22;67555;47.660;19.622;2023-05-10T14:57:36;22.90;39.20
78297;DHT22;67555;47.660;19.622;2023-05-10T15:00:04;22.90;39.30
78297;DHT22;67555;47.660;19.622;2023-05-10T15:02:31;23.00;39.20
78297;DHT22;67555;47.660;19.622;2023-05-10T15:04:57;23.00;39.00
78297;DHT22;67555;47.660;19.622;2023-05-10T15:07:23;23.10;39.00
78297;DHT22;67555;47.660;19.622;2023-05-10T15:09:50;23.10;38.90
78297;DHT22;67555;47.660;19.622;2023-05-10T15:12:17;23.00;38.80
78297;DHT22;67555;47.660;19.622;2023-05-10T15:14:43;23.00;38.90
78297;DHT22;67555;47.660;19.622;2023-05-10T15:17:08;23.00;38.70
78297;DHT22;67555;47.660;19.622;2023-05-10T15:19:34;23.00;38.70
78297;DHT22;67555;47.660;19.622;2023-05-10T15:22:00;23.10;38.60
78297;DHT22;67555;47.660;19.622;2023-05-10T15:24:26;23.10;38.30
78297;DHT22;67555;47.660;19.622;2023-05-10T15:26:52;23.10;38.30
78297;DHT22;67555;47.660;19.622;2023-05-10T15:29:17;23.10;38.20
78297;DHT22;67555;47.660;19.622;2023-05-10T15:31:49;23.20;38.10
78297;DHT22;67555;47.660;19.622;2023-05-10T15:34:15;23.10;37.70
78297;DHT22;67555;47.660;19.622;2023-05-10T15:36:41;23.00;37.60
78297;DHT22;67555;47.660;19.622;2023-05-10T15:39:07;23.00;37.60
78297;DHT22;67555;47.660;19.622;2023-05-10T15:41:35;23.00;37.50
78297;DHT22;67555;47.660;19.622;2023-05-10T15:44:00;22.80;37.50
78297;DHT22;67555;47.660;19.622;2023-05-10T15:46:27;22.70;37.50
78297;DHT22;67555;47.660;19.622;2023-05-10T15:48:53;22.70;37.60
78297;DHT22;67555;47.660;19.622;2023-05-10T15:51:19;22.60;37.60
78297;DHT22;67555;47.660;19.622;2023-05-10T15:53:45;22.50;37.60
78297;DHT22;67555;47.660;19.622;2023-05-10T15:56:11;22.20;38.00
78297;DHT22;67555;47.660;19.622;2023-05-10T15:58:40;22.10;38.10
78297;DHT22;67555;47.660;19.622;2023-05-10T16:01:06;22.00;38.10
78297;DHT22;67555;47.660;19.622;2023-05-10T16:03:33;21.90;38.20
78297;DHT22;67555;47.660;19.622;2023-05-10T16:05:59;21.90;38.20
78297;DHT22;67555;47.660;19.622;2023-05-10T16:08:26;21.80;38.10
78297;DHT22;67555;47.660;19.622;2023-05-10T16:10:52;21.70;38.00
78297;DHT22;67555;47.660;19.622;2023-05-10T16:13:18;21.50;38.20
78297;DHT22;67555;47.660;19.622;2023-05-10T16:15:44;21.40;38.60
78297;DHT22;67555;47.660;19.622;2023-05-10T16:18:11;21.30;38.70
78297;DHT22;67555;47.660;19.622;2023-05-10T16:20:37;21.20;38.80
78297;DHT22;67555;47.660;19.622;2023-05-10T16:23:04;21.20;38.80
78297;DHT22;67555;47.660;19.622;2023-05-10T16:25:31;21.10;38.70
78297;DHT22;67555;47.660;19.622;2023-05-10T16:27:58;21.00;38.70
78297;DHT22;67555;47.660;19.622;2023-05-10T16:30:24;20.90;38.70
78297;DHT22;67555;47.660;19.622;2023-05-10T16:32:52;20.70;38.90
78297;DHT22;67555;47.660;19.622;2023-05-10T16:35:18;20.60;39.00
78297;DHT22;67555;47.660;19.622;2023-05-10T16:37:43;20.50;39.20
78297;DHT22;67555;47.660;19.622;2023-05-10T16:40:09;20.30;39.30
78297;DHT22;67555;47.660;19.622;2023-05-10T16:42:35;20.20;39.40
78297;DHT22;67555;47.660;19.622;2023-05-10T16:45:02;20.10;39.40